Time;durP1;ratioP1;P1;durP2;ratioP2;P2;SDS_P1;SDS_P2;PMS_P1;PMS_P2;Temp;Humidity;BMP_temperature;BMP_pressure;BME280_temperature;BME280_humidity;BME280_pressure;Samples;Min_cycle;Max_cycle;Signal;HPM_P1;HPM_P2
2022/09/15 00:02:25;;;;;;;1.13;1.00;;;19.80;64.10;;;;;;5951814;24;20160;-85
2022/09/15 00:04:55;;;;;;;1.52;0.93;;;19.70;64.00;;;;;;5974746;24;20241;-85
2022/09/15 00:07:31;;;;;;;1.20;1.00;;;19.80;64.00;;;;;;5975240;24;20254;-85
2022/09/15 00:10:18;;;;;;;1.38;1.00;;;19.70;64.00;;;;;;6055172;23;20155;-84
2022/09/15 00:13:05;;;;;;;1.63;1.00;;;19.70;64.10;;;;;;6087265;23;20532;-85
2022/09/15 00:15:42;;;;;;;1.27;1.17;;;19.70;64.20;;;;;;6064728;23;20223;-85
2022/09/15 00:18:23;;;;;;;0.80;0.80;;;19.70;64.20;;;;;;6043889;23;20164;-85
2022/09/15 00:20:58;;;;;;;0.90;0.90;;;19.70;64.20;;;;;;6036131;23;20240;-85
2022/09/15 00:23:41;;;;;;;1.63;1.00;;;19.70;64.20;;;;;;6035953;23;20251;-85
2022/09/15 00:26:15;;;;;;;1.40;0.93;;;19.70;64.20;;;;;;6059394;23;20201;-85
2022/09/15 00:28:48;;;;;;;0.90;0.90;;;19.80;64.30;;;;;;6013960;23;20224;-85
2022/09/15 00:31:27;;;;;;;1.33;1.00;;;19.70;64.20;;;;;;6013828;23;20181;-86
2022/09/15 00:34:13;;;;;;;0.90;0.90;;;19.70;64.20;;;;;;5985843;23;20157;-85
2022/09/15 00:36:42;;;;;;;1.10;1.00;;;19.70;64.20;;;;;;5984123;23;20226;-85
2022/09/15 00:39:37;;;;;;;0.90;0.90;;;19.70;64.30;;;;;;5980435;23;20170;-85
2022/09/15 00:42:21;;;;;;;1.23;1.13;;;19.70;64.30;;;;;;5957282;23;20507;-84
2022/09/15 00:45:00;;;;;;;1.92;1.00;;;19.70;64.30;;;;;;5978190;23;20178;-85
2022/09/15 00:47:37;;;;;;;1.17;1.08;;;19.70;64.30;;;;;;5948224;24;20220;-85
2022/09/15 00:50:16;;;;;;;0.90;0.90;;;19.70;64.30;;;;;;5970316;24;20156;-83
2022/09/15 00:52:55;;;;;;;1.45;1.20;;;19.70;64.30;;;;;;5964140;24;20161;-85
2022/09/15 00:55:38;;;;;;;0.98;0.95;;;19.70;64.30;;;;;;5888193;24;20165;-85
2022/09/15 00:58:11;;;;;;;1.10;0.98;;;19.70;64.30;;;;;;5855371;24;20249;-85
2022/09/15 01:00:52;;;;;;;1.00;1.00;;;19.70;64.30;;;;;;5856801;24;20171;-85
2022/09/15 01:03:22;;;;;;;1.10;1.00;;;19.70;64.40;;;;;;5833268;24;20277;-85
2022/09/15 01:06:01;;;;;;;1.85;0.90;;;19.70;64.40;;;;;;5860380;24;20221;-85
2022/09/15 01:08:35;;;;;;;1.02;0.90;;;19.70;64.40;;;;;;5839503;24;20170;-85
2022/09/15 01:11:02;;;;;;;1.13;1.02;;;19.70;64.40;;;;;;5838858;24;20162;-86
2022/09/15 01:13:36;;;;;;;1.20;1.10;;;19.60;64.30;;;;;;5864500;24;20158;-85
2022/09/15 01:16:26;;;;;;;1.17;1.02;;;19.70;64.40;;;;;;5882632;24;20170;-85
2022/09/15 01:19:31;;;;;;;1.77;1.30;;;19.70;64.40;;;;;;5923190;24;20161;-85
2022/09/15 01:22:29;;;;;;;1.15;1.05;;;19.70;64.40;;;;;;5951986;24;20223;-85
2022/09/15 01:25:21;;;;;;;1.48;1.02;;;19.70;64.50;;;;;;5951057;24;20152;-85
2022/09/15 01:28:08;;;;;;;1.33;0.80;;;19.70;64.40;;;;;;5914979;24;20204;-85
2022/09/15 01:30:57;;;;;;;1.20;1.10;;;19.70;64.50;;;;;;5945187;24;20183;-86
2022/09/15 01:34:00;;;;;;;0.90;0.90;;;19.60;64.40;;;;;;6001789;23;20145;-85
2022/09/15 01:36:41;;;;;;;1.13;1.00;;;19.60;64.40;;;;;;6015219;23;20164;-85
2022/09/15 01:39:13;;;;;;;0.93;0.88;;;19.70;64.60;;;;;;5926087;24;20168;-84
2022/09/15 01:42:02;;;;;;;1.50;0.90;;;19.70;64.50;;;;;;5923641;24;20187;-85
2022/09/15 01:44:54;;;;;;;1.13;1.02;;;19.70;64.70;;;;;;5977775;24;20164;-84
2022/09/15 01:47:23;;;;;;;1.00;1.00;;;19.70;64.70;;;;;;5964853;24;20183;-85
2022/09/15 01:50:00;;;;;;;1.00;1.00;;;19.60;64.60;;;;;;5941350;24;20172;-85
2022/09/15 01:52:39;;;;;;;1.15;1.10;;;19.60;64.70;;;;;;5942604;24;20247;-85
2022/09/15 01:55:31;;;;;;;1.10;1.00;;;19.60;64.60;;;;;;5942363;24;20195;-85
2022/09/15 01:58:03;;;;;;;1.10;1.00;;;19.60;64.70;;;;;;5942955;24;20157;-85
2022/09/15 02:00:34;;;;;;;1.23;1.05;;;19.60;64.70;;;;;;5919145;24;20669;-85
2022/09/15 02:03:04;;;;;;;0.82;0.82;;;19.60;64.70;;;;;;5847644;24;20165;-85
2022/09/15 02:05:40;;;;;;;1.35;1.17;;;19.60;64.70;;;;;;5847552;24;20189;-85
2022/09/15 02:08:24;;;;;;;0.90;0.90;;;19.60;64.70;;;;;;5847361;24;20161;-84
2022/09/15 02:11:13;;;;;;;1.17;1.00;;;19.60;64.70;;;;;;5870399;24;20233;-85
2022/09/15 02:14:17;;;;;;;1.13;1.02;;;19.50;64.70;;;;;;5837526;24;20186;-85
2022/09/15 02:17:00;;;;;;;0.93;0.80;;;19.60;64.70;;;;;;5932129;24;20160;-84
2022/09/15 02:19:42;;;;;;;;;;;;;;;;;;;;;
2022/09/15 02:22:27;;;;;;;1.20;1.10;;;19.60;64.70;;;;;;5837607;24;20199;-85
2022/09/15 02:25:16;;;;;;;0.88;0.88;;;19.60;64.70;;;;;;5860516;24;20224;-84
2022/09/15 02:27:49;;;;;;;1.17;1.10;;;19.60;64.80;;;;;;5812379;24;20159;-85
2022/09/15 02:30:30;;;;;;;0.70;0.70;;;19.50;64.70;;;;;;5887299;24;20162;-85
2022/09/15 02:32:59;;;;;;;1.20;1.10;;;19.60;64.90;;;;;;5889477;24;20162;-84
2022/09/15 02:35:28;;;;;;;1.15;1.00;;;19.60;64.90;;;;;;5885314;24;20166;-85
2022/09/15 02:37:59;;;;;;;1.17;1.05;;;19.50;64.80;;;;;;5887429;24;20168;-85
2022/09/15 02:40:38;;;;;;;1.20;1.10;;;19.60;64.90;;;;;;5864219;24;20588;-85
2022/09/15 02:43:11;;;;;;;0.80;0.80;;;19.60;64.90;;;;;;5888311;24;20161;-86
2022/09/15 02:45:48;;;;;;;0.85;0.85;;;19.60;64.80;;;;;;5888657;24;20193;-86
2022/09/15 02:48:21;;;;;;;1.20;1.10;;;19.60;64.90;;;;;;5889712;24;20154;-85
2022/09/15 02:51:01;;;;;;;1.17;0.90;;;19.60;64.80;;;;;;5883927;24;20168;-85
2022/09/15 02:53:31;;;;;;;1.08;0.98;;;19.60;64.80;;;;;;5871669;24;20169;-86
2022/09/15 02:56:05;;;;;;;0.90;0.90;;;19.60;64.80;;;;;;5902559;24;20168;-85
2022/09/15 02:58:39;;;;;;;1.20;1.10;;;19.60;64.80;;;;;;5949171;24;20655;-85
2022/09/15 03:01:14;;;;;;;1.02;1.00;;;19.60;64.80;;;;;;5925650;24;20164;-85
2022/09/15 03:03:56;;;;;;;0.80;0.80;;;19.60;64.90;;;;;;5959444;24;20178;-85
2022/09/15 03:06:22;;;;;;;0.82;0.82;;;19.60;64.80;;;;;;5988297;23;20188;-85
2022/09/15 03:08:55;;;;;;;1.02;1.02;;;19.60;64.90;;;;;;6061176;23;20158;-85
2022/09/15 03:11:33;;;;;;;1.15;1.08;;;19.60;64.90;;;;;;5977122;24;20173;-85
2022/09/15 03:14:07;;;;;;;1.00;0.90;;;19.60;64.90;;;;;;5948738;24;20196;-85
2022/09/15 03:16:51;;;;;;;0.70;0.70;;;19.60;64.90;;;;;;5976238;24;20163;-85
2022/09/15 03:19:32;;;;;;;1.05;0.90;;;19.60;65.00;;;;;;5940987;24;20231;-85
2022/09/15 03:22:08;;;;;;;1.10;0.93;;;19.50;64.90;;;;;;5937259;24;20216;-85
2022/09/15 03:24:47;;;;;;;0.82;0.80;;;19.50;64.90;;;;;;5950910;24;20159;-84
2022/09/15 03:27:23;;;;;;;1.02;0.93;;;19.50;64.90;;;;;;5950314;24;20160;-85
2022/09/15 03:29:55;;;;;;;0.95;0.90;;;19.50;65.70;;;;;;5922235;24;20189;-84
2022/09/15 03:32:41;;;;;;;1.10;0.98;;;19.50;64.90;;;;;;5944523;24;20270;-86
2022/09/15 03:35:10;;;;;;;0.80;0.80;;;19.60;64.90;;;;;;5942689;24;20250;-85
2022/09/15 03:37:38;;;;;;;1.10;1.00;;;19.60;64.90;;;;;;5942361;24;20577;-85
2022/09/15 03:40:16;;;;;;;1.10;1.00;;;19.60;65.00;;;;;;5885971;24;20176;-85
2022/09/15 03:42:51;;;;;;;0.80;0.80;;;19.60;65.00;;;;;;5947872;24;20179;-84
2022/09/15 03:45:29;;;;;;;1.27;0.88;;;19.60;65.00;;;;;;5944755;24;20659;-85
2022/09/15 03:48:04;;;;;;;1.33;0.93;;;19.60;65.00;;;;;;5984995;23;20158;-85
2022/09/15 03:50:41;;;;;;;0.90;0.85;;;19.50;64.90;;;;;;5992793;23;20505;-86
2022/09/15 03:53:10;;;;;;;0.90;0.90;;;19.50;64.90;;;;;;5943390;24;20194;-85
2022/09/15 03:55:41;;;;;;;0.75;0.75;;;19.50;64.90;;;;;;5920595;24;20168;-85
2022/09/15 03:58:28;;;;;;;0.80;0.80;;;19.50;64.90;;;;;;5943153;24;20261;-85
2022/09/15 04:00:59;;;;;;;0.90;0.90;;;19.50;65.00;;;;;;5933866;24;20160;-84
2022/09/15 04:03:30;;;;;;;0.85;0.82;;;19.50;65.00;;;;;;5922037;24;20198;-84
2022/09/15 04:05:59;;;;;;;0.98;0.90;;;19.50;65.00;;;;;;5921890;24;20199;-85
2022/09/15 04:08:27;;;;;;;0.90;0.90;;;19.50;65.00;;;;;;5943258;24;20144;-85
2022/09/15 04:11:09;;;;;;;0.80;0.80;;;19.50;64.90;;;;;;5976467;24;20148;-85
2022/09/15 04:13:52;;;;;;;0.90;0.90;;;19.50;65.00;;;;;;5995202;23;20154;-85
2022/09/15 04:16:26;;;;;;;1.55;0.95;;;19.50;65.00;;;;;;6056666;23;20197;-86
2022/09/15 04:19:07;;;;;;;;;;;;;;;;;;;;;
2022/09/15 04:21:44;;;;;;;0.95;0.80;;;19.50;65.00;;;;;;6010884;23;20205;-84
2022/09/15 04:24:18;;;;;;;0.95;0.95;;;19.50;65.00;;;;;;5989697;24;20211;-85
2022/09/15 04:26:55;;;;;;;1.05;0.70;;;19.50;65.00;;;;;;5995989;24;20199;-85
2022/09/15 04:29:25;;;;;;;0.70;0.70;;;19.50;65.00;;;;;;5948851;24;20190;-85
2022/09/15 04:31:52;;;;;;;1.20;1.10;;;19.50;65.00;;;;;;5948155;24;20168;-85
2022/09/15 04:34:31;;;;;;;0.82;0.82;;;19.50;65.10;;;;;;5926682;24;20166;-86
2022/09/15 04:37:06;;;;;;;0.80;0.80;;;19.50;65.00;;;;;;5994823;24;20160;-86
2022/09/15 04:39:35;;;;;;;0.80;0.80;;;19.50;65.10;;;;;;5950401;24;20620;-85
2022/09/15 04:42:13;;;;;;;1.00;0.90;;;19.50;65.10;;;;;;5948602;24;20159;-84
2022/09/15 04:44:39;;;;;;;1.08;0.93;;;19.50;65.10;;;;;;5990240;24;20531;-84
2022/09/15 04:47:16;;;;;;;0.80;0.80;;;19.50;65.20;;;;;;5943075;24;20198;-86
2022/09/15 04:49:42;;;;;;;0.90;0.88;;;19.50;65.20;;;;;;5972246;23;20243;-86
2022/09/15 04:52:08;;;;;;;0.60;0.60;;;19.50;65.30;;;;;;5966340;24;20163;-85
2022/09/15 04:54:37;;;;;;;1.17;0.75;;;19.50;65.00;;;;;;5977229;23;20162;-85
2022/09/15 04:57:08;;;;;;;0.95;0.88;;;19.50;64.80;;;;;;6011911;23;20161;-85
2022/09/15 04:59:49;;;;;;;1.08;0.77;;;19.50;65.10;;;;;;6055328;23;20258;-84
2022/09/15 05:02:18;;;;;;;0.80;0.70;;;19.50;65.00;;;;;;6020356;23;20352;-85
2022/09/15 05:04:50;;;;;;;0.70;0.70;;;19.50;64.90;;;;;;5972035;23;20166;-86
2022/09/15 05:07:34;;;;;;;0.98;0.90;;;19.60;65.10;;;;;;6014002;23;20561;-85
2022/09/15 05:09:59;;;;;;;0.73;0.73;;;19.50;64.30;;;;;;5991605;23;20244;-85
2022/09/15 05:12:32;;;;;;;0.85;0.68;;;19.50;64.20;;;;;;5968374;23;20163;-85
2022/09/15 05:14:59;;;;;;;1.08;0.60;;;19.50;63.90;;;;;;5994591;23;20189;-85
2022/09/15 05:17:31;;;;;;;0.77;0.77;;;19.50;63.90;;;;;;5993828;23;20162;-85
2022/09/15 05:20:04;;;;;;;0.60;0.60;;;19.50;63.80;;;;;;6011152;23;20172;-84
2022/09/15 05:22:33;;;;;;;1.15;0.80;;;19.50;63.70;;;;;;6078045;23;20240;-85
2022/09/15 05:25:03;;;;;;;0.65;0.63;;;19.50;63.50;;;;;;6031233;23;20149;-84
2022/09/15 05:27:34;;;;;;;0.80;0.52;;;19.50;63.40;;;;;;6022131;23;20174;-84
2022/09/15 05:30:02;;;;;;;0.60;0.60;;;19.50;63.30;;;;;;6020292;23;20154;-84
2022/09/15 05:32:39;;;;;;;0.50;0.50;;;19.50;64.20;;;;;;6005447;23;20164;-85
2022/09/15 05:35:12;;;;;;;0.40;0.40;;;19.50;63.30;;;;;;6005628;23;20168;-84
2022/09/15 05:37:52;;;;;;;0.60;0.60;;;19.50;63.10;;;;;;6038666;23;20246;-84
2022/09/15 05:40:31;;;;;;;0.70;0.63;;;19.50;63.10;;;;;;6038865;23;20163;-85
2022/09/15 05:42:57;;;;;;;0.82;0.60;;;19.50;63.10;;;;;;6081739;23;20160;-84
2022/09/15 05:45:27;;;;;;;0.60;0.60;;;19.50;63.20;;;;;;6081476;23;20211;-85
2022/09/15 05:48:03;;;;;;;0.60;0.60;;;19.50;63.20;;;;;;6082274;23;20166;-83
2022/09/15 05:50:32;;;;;;;0.85;0.70;;;19.40;63.20;;;;;;6106181;23;20140;-83
2022/09/15 05:52:58;;;;;;;0.40;0.40;;;19.50;63.30;;;;;;6083163;23;20162;-85
2022/09/15 05:55:39;;;;;;;0.50;0.50;;;19.50;63.10;;;;;;6080942;23;20247;-84
2022/09/15 05:58:10;;;;;;;0.68;0.63;;;19.50;63.10;;;;;;6003031;23;20162;-85
2022/09/15 06:00:43;;;;;;;0.80;0.70;;;19.50;63.10;;;;;;5998472;23;20162;-86
2022/09/15 06:03:20;;;;;;;0.60;0.50;;;19.50;63.10;;;;;;5988527;24;20163;-85
2022/09/15 06:05:46;;;;;;;0.50;0.50;;;19.50;62.70;;;;;;5987848;24;20191;-84
2022/09/15 06:08:12;;;;;;;0.45;0.45;;;19.50;62.70;;;;;;5984606;24;20470;-86
2022/09/15 06:10:38;;;;;;;0.40;0.40;;;19.60;62.70;;;;;;5950974;24;20168;-83
2022/09/15 06:13:10;;;;;;;0.77;0.60;;;19.60;62.60;;;;;;5980972;24;20164;-84
2022/09/15 06:15:39;;;;;;;0.70;0.57;;;19.50;62.10;;;;;;5957287;24;20164;-84
2022/09/15 06:18:11;;;;;;;0.45;0.45;;;19.60;62.30;;;;;;5957402;24;20548;-85
2022/09/15 06:20:37;;;;;;;0.50;0.50;;;19.60;62.20;;;;;;5981782;24;20160;-85
2022/09/15 06:23:20;;;;;;;0.57;0.57;;;19.70;61.90;;;;;;5981134;24;20180;-84
2022/09/15 06:25:50;;;;;;;0.50;0.50;;;19.70;62.00;;;;;;5969769;24;20195;-85
2022/09/15 06:28:18;;;;;;;0.60;0.50;;;19.70;61.80;;;;;;5996335;23;20661;-85
2022/09/15 06:30:48;;;;;;;0.80;0.80;;;19.80;61.70;;;;;;6019686;23;20676;-85
2022/09/15 06:33:14;;;;;;;0.70;0.70;;;19.80;61.50;;;;;;6019623;23;20165;-85
2022/09/15 06:35:43;;;;;;;0.50;0.50;;;19.80;61.60;;;;;;6018961;23;20201;-85
2022/09/15 06:38:11;;;;;;;0.52;0.52;;;19.80;61.60;;;;;;6022680;23;20191;-84
2022/09/15 06:40:44;;;;;;;0.88;0.60;;;19.70;61.50;;;;;;5976321;23;20629;-85
2022/09/15 06:43:14;;;;;;;0.50;0.50;;;19.70;61.40;;;;;;6045011;23;20159;-84
2022/09/15 06:45:45;;;;;;;0.77;0.60;;;19.80;61.70;;;;;;6000526;23;20190;-84
2022/09/15 06:48:12;;;;;;;0.60;0.60;;;19.70;61.40;;;;;;5977359;23;20527;-84
2022/09/15 06:50:51;;;;;;;0.50;0.50;;;19.70;61.20;;;;;;6000481;23;20158;-84
2022/09/15 06:53:19;;;;;;;0.50;0.50;;;19.70;61.20;;;;;;5947652;24;20725;-84
2022/09/15 06:55:49;;;;;;;0.45;0.45;;;19.80;61.20;;;;;;5968169;24;20507;-84
2022/09/15 06:58:23;;;;;;;0.52;0.52;;;19.80;61.00;;;;;;5968370;23;20217;-85
2022/09/15 07:01:00;;;;;;;0.40;0.40;;;19.80;61.00;;;;;;6024804;23;20161;-83
2022/09/15 07:03:32;;;;;;;0.50;0.50;;;19.80;61.20;;;;;;6028788;23;20161;-84
2022/09/15 07:06:10;;;;;;;0.57;0.57;;;19.80;61.20;;;;;;6005255;23;20559;-84
2022/09/15 07:08:39;;;;;;;0.52;0.52;;;19.80;61.00;;;;;;6030000;23;20165;-84
2022/09/15 07:11:09;;;;;;;0.50;0.50;;;19.80;61.20;;;;;;6030921;23;20154;-85
2022/09/15 07:13:57;;;;;;;0.47;0.47;;;19.80;60.90;;;;;;6027781;23;20213;-85
2022/09/15 07:16:24;;;;;;;0.45;0.45;;;19.80;61.00;;;;;;5995503;24;20170;-85
2022/09/15 07:19:04;;;;;;;0.60;0.60;;;19.80;60.80;;;;;;5989587;24;20160;-85
2022/09/15 07:21:32;;;;;;;0.50;0.50;;;19.80;60.70;;;;;;5967850;24;20222;-85
2022/09/15 07:24:09;;;;;;;0.40;0.40;;;19.80;60.70;;;;;;5915117;24;20255;-84
2022/09/15 07:26:42;;;;;;;0.50;0.50;;;19.70;60.80;;;;;;5934043;24;20196;-85
2022/09/15 08:26:29;;;;;;;1.23;0.50;;;19.80;61.00;;;;;;6125994;23;20207;-83
2022/09/15 08:28:59;;;;;;;1.73;0.50;;;19.80;60.90;;;;;;6083082;23;20217;-83
2022/09/15 08:31:46;;;;;;;0.80;0.55;;;19.80;60.70;;;;;;6086093;23;20184;-83
2022/09/15 08:34:31;;;;;;;;;;;;;;;;;;;;;
2022/09/15 08:39:56;;;;;;;0.63;0.63;;;19.80;60.80;;;;;;6130319;23;20207;-83
2022/09/15 08:42:29;;;;;;;0.55;0.55;;;19.80;60.80;;;;;;6071430;23;20155;-83
2022/09/15 08:45:23;;;;;;;1.55;0.35;;;19.80;60.50;;;;;;6102068;23;20214;-83
2022/09/15 08:51:15;;;;;;;1.85;0.50;;;19.80;61.00;;;;;;6135685;23;20169;-83
2022/09/15 08:53:44;;;;;;;0.88;0.52;;;19.80;60.90;;;;;;6113369;23;20183;-84
2022/09/15 08:56:33;;;;;;;0.63;0.50;;;19.70;60.90;;;;;;6065383;23;20152;-83
2022/09/15 08:59:03;;;;;;;3.67;1.02;;;19.80;61.00;;;;;;6108328;23;20164;-84
2022/09/15 09:01:55;;;;;;;1.63;0.43;;;19.80;61.20;;;;;;6110198;23;20155;-84
2022/09/15 09:04:45;;;;;;;2.05;0.50;;;19.80;60.80;;;;;;6069670;23;20162;-84
2022/09/15 09:08:04;;;;;;;1.30;0.60;;;19.80;60.70;;;;;;5983866;23;20203;-84
2022/09/15 09:10:51;;;;;;;0.45;0.32;;;19.80;60.90;;;;;;6022346;23;20626;-84
2022/09/15 09:13:39;;;;;;;0.50;0.50;;;19.80;60.40;;;;;;6007284;23;20157;-83
2022/09/15 09:16:35;;;;;;;3.50;0.50;;;19.90;60.20;;;;;;6051752;23;20192;-83
2022/09/15 09:19:30;;;;;;;0.43;0.30;;;19.80;60.50;;;;;;6024934;23;20240;-84
2022/09/15 09:22:02;;;;;;;0.88;0.40;;;19.80;60.70;;;;;;5941875;24;20163;-84
2022/09/15 09:24:38;;;;;;;0.63;0.50;;;19.80;60.70;;;;;;5965188;24;20156;-84
2022/09/15 09:27:18;;;;;;;0.50;0.50;;;19.80;60.60;;;;;;5943849;24;20199;-84
2022/09/15 09:29:57;;;;;;;0.40;0.40;;;19.80;60.90;;;;;;5969430;24;20556;-83
2022/09/15 09:32:39;;;;;;;1.33;0.40;;;19.80;61.00;;;;;;5962195;24;20246;-84
2022/09/15 09:35:37;;;;;;;0.88;0.55;;;19.80;61.00;;;;;;5972352;24;20611;-84
2022/09/15 09:38:17;;;;;;;1.10;0.50;;;19.80;61.00;;;;;;5961036;24;20208;-83
2022/09/15 09:40:45;;;;;;;0.85;0.60;;;19.80;60.80;;;;;;5984151;24;20229;-83
2022/09/15 09:43:48;;;;;;;0.40;0.40;;;19.80;60.90;;;;;;5943856;24;20164;-83
2022/09/15 09:46:15;;;;;;;0.30;0.30;;;19.80;60.90;;;;;;6012708;23;20257;-83
2022/09/15 09:49:05;;;;;;;0.43;0.43;;;19.80;60.70;;;;;;5991766;23;20458;-83
2022/09/15 09:51:38;;;;;;;1.05;0.40;;;19.80;61.20;;;;;;6011101;23;20304;-84
2022/09/15 09:54:21;;;;;;;0.43;0.40;;;19.80;60.90;;;;;;6001235;23;20161;-83
2022/09/15 09:56:48;;;;;;;0.73;0.40;;;19.70;61.20;;;;;;6048281;23;20177;-84
2022/09/15 09:59:30;;;;;;;0.30;0.30;;;19.80;61.00;;;;;;6022538;23;20162;-84
2022/09/15 10:02:19;;;;;;;1.50;0.40;;;19.80;61.20;;;;;;6053707;23;20161;-84
2022/09/15 10:04:54;;;;;;;0.60;0.45;;;19.80;61.40;;;;;;6053601;23;20474;-84
2022/09/15 10:07:23;;;;;;;0.30;0.30;;;19.80;61.20;;;;;;6054458;23;20184;-84
2022/09/15 10:09:59;;;;;;;0.35;0.35;;;19.70;61.20;;;;;;6109491;23;20152;-84
2022/09/15 10:12:32;;;;;;;0.40;0.40;;;19.80;61.40;;;;;;6168586;23;20555;-85
2022/09/15 10:15:04;;;;;;;0.60;0.40;;;19.80;61.40;;;;;;6110626;23;20153;-83
2022/09/15 10:17:49;;;;;;;3.80;0.50;;;19.80;61.20;;;;;;6065088;23;20156;-83
2022/09/15 10:20:34;;;;;;;2.65;0.40;;;19.80;61.30;;;;;;6005079;23;20185;-84
2022/09/15 10:23:31;;;;;;;1.25;0.60;;;19.70;61.00;;;;;;5948825;24;20187;-84
2022/09/15 10:26:27;;;;;;;1.05;0.40;;;19.80;61.20;;;;;;5948056;24;20195;-84
2022/09/15 10:29:22;;;;;;;1.13;0.52;;;19.80;60.70;;;;;;5947364;24;20261;-84
2022/09/15 10:31:52;;;;;;;1.20;0.38;;;19.80;60.70;;;;;;5969638;24;20160;-84
2022/09/15 10:34:32;;;;;;;0.63;0.40;;;19.80;60.60;;;;;;5922998;24;20190;-83
2022/09/15 10:37:20;;;;;;;0.50;0.45;;;19.80;61.00;;;;;;5921296;24;20159;-84
2022/09/15 10:40:00;;;;;;;0.60;0.40;;;19.80;61.30;;;;;;5921472;24;20199;-84
2022/09/15 10:53:58;;;;;;;0.40;0.40;;;19.70;61.10;;;;;;6079265;23;20203;-83
2022/09/15 10:56:28;;;;;;;0.40;0.35;;;19.70;61.20;;;;;;6094319;23;20158;-85
2022/09/15 10:59:06;;;;;;;0.55;0.40;;;19.70;60.90;;;;;;6139106;23;20155;-84
2022/09/15 11:02:26;;;;;;;0.75;0.30;;;19.80;61.00;;;;;;6147392;23;20179;-85
2022/09/15 11:05:26;;;;;;;0.30;0.30;;;19.70;61.70;;;;;;6147756;23;20142;-85
2022/09/15 11:08:26;;;;;;;0.32;0.30;;;19.70;61.00;;;;;;6130944;23;20190;-85
2022/09/15 11:11:08;;;;;;;0.65;0.40;;;19.80;61.00;;;;;;6123559;23;20182;-87
2022/09/15 11:14:11;;;;;;;2.15;0.50;;;19.80;61.00;;;;;;6169358;23;20147;-85
2022/09/15 12:58:02;;;;;;;0.40;0.40;;;19.80;60.50;;;;;;6141971;23;20215;-84
2022/09/15 13:00:42;;;;;;;0.40;0.40;;;19.90;60.60;;;;;;6025799;23;20167;-86
2022/09/15 13:41:17;;;;;;;0.88;0.40;;;20.00;61.00;;;;;;6140905;23;20147;-84
2022/09/15 13:44:00;;;;;;;1.38;0.47;;;20.00;61.10;;;;;;6048526;23;20167;-85
2022/09/15 13:50:39;;;;;;;;;;;;;;;;;;;;;
2022/09/15 13:53:41;;;;;;;1.23;0.68;;;20.00;61.40;;;;;;6115289;23;20181;-84
2022/09/15 13:56:24;;;;;;;0.60;0.50;;;20.10;61.20;;;;;;6095743;23;20219;-85
2022/09/15 13:59:01;;;;;;;1.45;0.60;;;20.10;61.00;;;;;;6079773;23;20165;-87
2022/09/15 14:01:43;;;;;;;0.52;0.45;;;20.10;61.10;;;;;;6053771;23;20240;-84
2022/09/15 14:04:23;;;;;;;0.55;0.50;;;20.10;61.00;;;;;;6032347;23;20653;-84
2022/09/15 14:06:59;;;;;;;0.65;0.40;;;20.10;60.70;;;;;;5986970;23;20248;-85
2022/09/15 14:09:50;;;;;;;0.40;0.40;;;20.10;61.80;;;;;;6027253;23;20231;-86
2022/09/15 14:13:09;;;;;;;1.60;0.60;;;20.10;60.80;;;;;;5951116;24;20176;-86
2022/09/15 14:15:37;;;;;;;0.50;0.50;;;20.10;61.00;;;;;;5859543;24;20192;-85
2022/09/15 14:18:22;;;;;;;1.48;0.40;;;20.10;60.80;;;;;;5877250;24;20182;-86
2022/09/15 14:20:59;;;;;;;0.40;0.40;;;20.00;60.60;;;;;;5843796;24;20163;-85
2022/09/15 14:23:32;;;;;;;0.70;0.55;;;20.10;60.60;;;;;;5843181;24;20208;-86
2022/09/15 14:29:49;;;;;;;0.40;0.40;;;20.10;60.50;;;;;;5832137;24;20213;-85
2022/09/15 14:32:23;;;;;;;0.90;0.57;;;20.10;60.30;;;;;;5840993;24;20172;-85
2022/09/15 14:35:08;;;;;;;0.50;0.50;;;20.10;60.60;;;;;;5806775;24;20260;-85
2022/09/15 14:37:43;;;;;;;2.15;0.50;;;20.10;61.40;;;;;;5826056;24;20164;-85
2022/09/15 14:40:18;;;;;;;2.03;0.60;;;20.10;60.70;;;;;;5831322;24;20258;-85
2022/09/15 14:42:46;;;;;;;0.40;0.40;;;20.10;61.10;;;;;;5839810;24;20173;-85
2022/09/15 14:45:14;;;;;;;1.40;0.50;;;20.10;61.20;;;;;;5857111;24;20170;-84
2022/09/15 14:47:42;;;;;;;0.60;0.60;;;20.10;61.30;;;;;;5881343;24;20162;-85
2022/09/15 14:50:21;;;;;;;0.70;0.70;;;20.10;61.40;;;;;;5913479;24;20161;-85
2022/09/15 14:52:53;;;;;;;0.85;0.70;;;20.10;61.50;;;;;;5919654;24;20233;-86
2022/09/15 14:55:23;;;;;;;1.17;0.75;;;20.00;61.50;;;;;;5942369;24;20168;-86
2022/09/15 14:58:00;;;;;;;0.60;0.60;;;20.00;61.60;;;;;;5947357;24;20207;-85
2022/09/15 15:00:34;;;;;;;0.90;0.63;;;20.10;61.80;;;;;;5948434;24;20288;-85
2022/09/15 15:03:20;;;;;;;0.65;0.60;;;20.00;61.90;;;;;;5975265;24;20191;-85
2022/09/15 15:05:59;;;;;;;0.50;0.50;;;20.00;61.90;;;;;;5998843;24;20194;-86
2022/09/15 15:08:34;;;;;;;0.50;0.50;;;20.00;62.00;;;;;;5972579;24;20162;-85
2022/09/15 15:11:19;;;;;;;0.50;0.50;;;20.00;62.00;;;;;;6092879;23;20159;-85
2022/09/15 15:14:00;;;;;;;0.60;0.60;;;20.00;62.00;;;;;;6073424;23;20211;-85
2022/09/15 15:16:34;;;;;;;0.40;0.40;;;20.00;62.10;;;;;;6029230;23;20233;-84
2022/09/15 15:19:24;;;;;;;0.60;0.50;;;20.00;62.00;;;;;;6005993;23;20544;-84
2022/09/15 15:22:19;;;;;;;0.75;0.68;;;20.10;62.00;;;;;;6006222;23;20602;-84
2022/09/15 15:24:56;;;;;;;3.92;0.60;;;20.10;62.00;;;;;;6053142;23;20178;-84
2022/09/15 15:27:27;;;;;;;1.65;0.80;;;20.10;61.90;;;;;;5950828;24;20195;-84
2022/09/15 15:30:18;;;;;;;2.65;0.55;;;20.10;62.00;;;;;;5941277;24;20156;-84
2022/09/15 15:32:57;;;;;;;1.00;0.52;;;20.10;61.80;;;;;;5899275;24;20161;-85
2022/09/15 15:35:26;;;;;;;2.58;0.80;;;20.10;61.60;;;;;;5938567;24;20161;-85
2022/09/15 15:38:13;;;;;;;1.55;0.60;;;20.10;61.90;;;;;;5917637;24;20161;-85
2022/09/15 15:44:28;;;;;;;7.28;0.80;;;20.10;62.00;;;;;;5809394;24;20165;-85
2022/09/15 15:47:27;;;;;;;1.70;0.60;;;20.10;62.00;;;;;;5817856;24;20218;-86
2022/09/15 15:54:28;;;;;;;0.60;0.60;;;20.10;62.10;;;;;;5837350;24;20174;-88
2022/09/15 16:00:24;;;;;;;1.27;0.60;;;20.10;62.10;;;;;;5775542;24;20246;-86
2022/09/15 16:02:50;;;;;;;1.65;0.60;;;20.00;62.40;;;;;;5775754;24;20279;-85
2022/09/15 16:05:20;;;;;;;0.82;0.50;;;20.10;62.30;;;;;;5778636;24;20207;-87
2022/09/15 16:07:46;;;;;;;1.27;0.50;;;20.10;62.30;;;;;;5752221;24;20174;-85
2022/09/15 16:10:23;;;;;;;1.17;0.73;;;20.10;62.30;;;;;;5770562;24;20654;-86
2022/09/15 16:12:55;;;;;;;2.30;0.60;;;20.10;62.30;;;;;;5819341;24;20164;-86
2022/09/15 16:15:34;;;;;;;0.90;0.60;;;20.10;62.30;;;;;;5781559;24;20510;-87
2022/09/15 16:18:01;;;;;;;1.25;0.60;;;20.10;62.40;;;;;;5826683;24;20173;-87
2022/09/15 16:20:37;;;;;;;2.25;0.50;;;20.10;62.30;;;;;;5826170;24;20195;-85
2022/09/15 16:23:18;;;;;;;3.58;0.52;;;20.10;62.30;;;;;;5866203;24;20575;-86
2022/09/15 16:25:54;;;;;;;1.08;0.77;;;20.10;62.30;;;;;;5860744;24;20259;-88
2022/09/15 16:28:22;;;;;;;1.25;0.60;;;20.10;62.30;;;;;;5865927;24;20207;-86
2022/09/15 16:31:42;;;;;;;;;;;;;;;;;;;;;
2022/09/15 16:34:16;;;;;;;1.80;0.60;;;20.10;62.30;;;;;;6007796;23;20157;-87
2022/09/15 16:36:45;;;;;;;1.40;0.68;;;20.10;62.30;;;;;;5998873;23;20206;-86
2022/09/15 16:40:35;;;;;;;0.90;0.70;;;20.10;62.30;;;;;;5970197;23;20226;-86
2022/09/15 16:42:44;;;;;;;1.85;0.50;;;20.10;62.30;;;;;;5922492;24;20160;-86
2022/09/15 16:45:25;;;;;;;1.75;0.50;;;20.10;62.20;;;;;;5913743;24;20588;-85
2022/09/15 16:47:57;;;;;;;0.75;0.50;;;20.10;62.20;;;;;;5894206;24;20168;-86
2022/09/15 16:50:45;;;;;;;1.85;0.50;;;20.10;62.10;;;;;;5829629;24;20237;-87
2022/09/15 16:53:53;;;;;;;1.90;0.40;;;20.10;62.10;;;;;;5835227;24;20159;-86
2022/09/15 16:56:50;;;;;;;1.27;0.60;;;20.00;62.00;;;;;;5745298;25;20173;-86
2022/09/15 16:59:16;;;;;;;2.20;0.70;;;20.10;62.30;;;;;;5813426;24;20164;-86
2022/09/15 17:01:56;;;;;;;1.33;0.60;;;20.00;62.20;;;;;;5790989;24;20587;-85
2022/09/15 17:04:26;;;;;;;2.55;0.60;;;20.10;62.20;;;;;;5800564;24;20197;-84
2022/09/15 17:06:52;;;;;;;0.55;0.50;;;20.10;62.20;;;;;;5795915;24;20333;-87
2022/09/15 17:09:25;;;;;;;1.55;0.70;;;20.10;62.10;;;;;;5798462;24;20171;-85
2022/09/15 17:11:52;;;;;;;1.67;0.80;;;20.10;62.20;;;;;;5778746;24;20191;-84
2022/09/15 17:14:19;;;;;;;1.65;0.50;;;20.10;62.30;;;;;;5791554;24;20171;-86
2022/09/15 17:16:51;;;;;;;2.15;0.60;;;20.10;62.20;;;;;;5774384;24;20554;-85
2022/09/15 17:19:18;;;;;;;0.65;0.60;;;20.10;62.50;;;;;;5774622;24;20172;-85
2022/09/15 17:21:49;;;;;;;5.65;0.60;;;20.10;62.30;;;;;;5828529;24;20224;-85
2022/09/15 17:24:30;;;;;;;0.90;0.60;;;20.10;62.50;;;;;;5881134;24;20203;-87
2022/09/15 17:27:37;;;;;;;;;;;;;;;;;;;;;
2022/09/15 17:30:36;;;;;;;1.80;0.63;;;20.10;62.70;;;;;;5885894;24;20214;-85
2022/09/15 17:33:22;;;;;;;1.17;0.60;;;20.10;62.60;;;;;;5971066;23;20241;-85
2022/09/15 17:36:10;;;;;;;2.35;0.70;;;20.10;62.70;;;;;;6029172;23;20245;-84
2022/09/15 17:39:32;;;;;;;1.77;0.80;;;20.10;62.40;;;;;;6084907;23;20230;-87
2022/09/15 17:42:17;;;;;;;0.60;0.50;;;20.10;62.40;;;;;;6040707;23;20164;-84
2022/09/15 17:44:57;;;;;;;2.10;0.60;;;20.10;62.40;;;;;;6025674;23;20158;-85